SAS3MD EKCH-EKVG
Flight info
| Callsign | SAS3MD |
|---|---|
| Flight time | 2h 15m |
| Altitude | 38000 |
| Route | GOLGA DCT AMSEV DCT ZOL DCT GUNPA/M079F380 DCT ROBUR |
| Aircraft | A20N/M-SDE2E3FGHIJ1RWXY/LB1 |
Departure
| Time | 2026-05-07 13:13 |
|---|---|
| Airport | Copenhagen Kastrup Airport (EKCH) |
Arrival
| Time | 2026-05-07 15:28 |
|---|---|
| Airport | Vágar Airport (EKVG) |
| Time | Latitude | Longitude | Altitude | Speed | Heading |
|---|---|---|---|---|---|
| 2026-05-07 12:45 | 55.62646 | 12.64559 | 21 ft | 0 kts | 281° |
| 2026-05-07 13:00 | 55.62643 | 12.64584 | 21 ft | 2 kts | 281° |
| 2026-05-07 13:01 | 55.62641 | 12.64601 | 21 ft | 2 kts | 282° |
| 2026-05-07 13:01 | 55.62642 | 12.64627 | 21 ft | 2 kts | 252° |
| 2026-05-07 13:01 | 55.62648 | 12.64650 | 20 ft | 2 kts | 230° |
| 2026-05-07 13:01 | 55.62660 | 12.64668 | 20 ft | 2 kts | 206° |
| 2026-05-07 13:02 | 55.62668 | 12.64673 | 20 ft | 1 kts | 192° |
| 2026-05-07 13:02 | 55.62674 | 12.64675 | 20 ft | 0 kts | 191° |
| 2026-05-07 13:05 | 55.62667 | 12.64673 | 20 ft | 2 kts | 191° |
| 2026-05-07 13:05 | 55.62645 | 12.64665 | 20 ft | 3 kts | 191° |
| 2026-05-07 13:05 | 55.62614 | 12.64655 | 21 ft | 5 kts | 190° |
| 2026-05-07 13:06 | 55.62575 | 12.64651 | 21 ft | 6 kts | 180° |
| 2026-05-07 13:06 | 55.62529 | 12.64652 | 21 ft | 7 kts | 179° |
| 2026-05-07 13:06 | 55.62472 | 12.64663 | 21 ft | 8 kts | 171° |
| 2026-05-07 13:06 | 55.62409 | 12.64675 | 21 ft | 9 kts | 178° |
| 2026-05-07 13:07 | 55.62340 | 12.64696 | 21 ft | 10 kts | 148° |
| 2026-05-07 13:07 | 55.62281 | 12.64783 | 21 ft | 11 kts | 161° |
| 2026-05-07 13:07 | 55.62211 | 12.64771 | 21 ft | 9 kts | 207° |
| 2026-05-07 13:07 | 55.62156 | 12.64705 | 21 ft | 10 kts | 215° |
| 2026-05-07 13:08 | 55.62094 | 12.64633 | 21 ft | 11 kts | 213° |
| 2026-05-07 13:08 | 55.62024 | 12.64555 | 21 ft | 12 kts | 211° |
| 2026-05-07 13:08 | 55.61946 | 12.64506 | 22 ft | 12 kts | 186° |
| 2026-05-07 13:08 | 55.61856 | 12.64526 | 22 ft | 13 kts | 169° |
| 2026-05-07 13:09 | 55.61761 | 12.64558 | 22 ft | 14 kts | 170° |
| 2026-05-07 13:09 | 55.61666 | 12.64549 | 22 ft | 14 kts | 205° |
| 2026-05-07 13:09 | 55.61579 | 12.64457 | 22 ft | 14 kts | 213° |
| 2026-05-07 13:09 | 55.61489 | 12.64353 | 22 ft | 15 kts | 213° |
| 2026-05-07 13:10 | 55.61398 | 12.64247 | 22 ft | 15 kts | 213° |
| 2026-05-07 13:10 | 55.61308 | 12.64143 | 22 ft | 16 kts | 213° |
| 2026-05-07 13:10 | 55.61211 | 12.64030 | 22 ft | 16 kts | 214° |
| 2026-05-07 13:10 | 55.61113 | 12.63917 | 22 ft | 16 kts | 213° |
| 2026-05-07 13:11 | 55.61016 | 12.63804 | 22 ft | 17 kts | 213° |
| 2026-05-07 13:11 | 55.60916 | 12.63691 | 22 ft | 16 kts | 213° |
| 2026-05-07 13:11 | 55.60813 | 12.63577 | 22 ft | 17 kts | 212° |
| 2026-05-07 13:11 | 55.60715 | 12.63462 | 21 ft | 16 kts | 214° |
| 2026-05-07 13:12 | 55.60622 | 12.63343 | 21 ft | 16 kts | 220° |
| 2026-05-07 13:12 | 55.60533 | 12.63233 | 21 ft | 15 kts | 194° |
| 2026-05-07 13:12 | 55.60447 | 12.63318 | 21 ft | 15 kts | 131° |
| 2026-05-07 13:12 | 55.60441 | 12.63491 | 21 ft | 25 kts | 51° |
| 2026-05-07 13:13 | 55.60751 | 12.63980 | 23 ft | 92 kts | 41° |
| 2026-05-07 13:13 | 55.61373 | 12.64935 | 24 ft | 147 kts | 43° |
| 2026-05-07 13:13 | 55.62220 | 12.66275 | 306 ft | 167 kts | 40° |
| 2026-05-07 13:13 | 55.63099 | 12.67677 | 886 ft | 171 kts | 40° |
| 2026-05-07 13:14 | 55.63975 | 12.69036 | 1597 ft | 169 kts | 39° |
| 2026-05-07 13:14 | 55.64890 | 12.70456 | 2138 ft | 179 kts | 38° |
| 2026-05-07 13:14 | 55.66032 | 12.71499 | 2492 ft | 193 kts | 9° |
| 2026-05-07 13:14 | 55.67424 | 12.71268 | 2775 ft | 215 kts | 340° |
| 2026-05-07 13:15 | 55.68898 | 12.70359 | 3203 ft | 231 kts | 351° |
| 2026-05-07 13:15 | 55.70573 | 12.69993 | 3674 ft | 248 kts | 355° |
| 2026-05-07 13:15 | 55.72321 | 12.69733 | 4375 ft | 254 kts | 356° |
| 2026-05-07 13:15 | 55.74080 | 12.69518 | 5177 ft | 257 kts | 357° |
| 2026-05-07 13:16 | 55.75861 | 12.69322 | 5972 ft | 260 kts | 358° |
| 2026-05-07 13:16 | 55.77676 | 12.69129 | 6766 ft | 263 kts | 358° |
| 2026-05-07 13:16 | 55.79523 | 12.68937 | 7547 ft | 267 kts | 358° |
| 2026-05-07 13:16 | 55.81364 | 12.68339 | 8269 ft | 273 kts | 336° |
| 2026-05-07 13:17 | 55.82870 | 12.66328 | 9010 ft | 279 kts | 309° |
| 2026-05-07 13:17 | 55.83730 | 12.63527 | 9721 ft | 283 kts | 293° |
| 2026-05-07 13:17 | 55.84417 | 12.60319 | 10439 ft | 287 kts | 292° |
| 2026-05-07 13:17 | 55.85142 | 12.56911 | 10887 ft | 302 kts | 292° |
| 2026-05-07 13:18 | 55.85930 | 12.53268 | 11241 ft | 319 kts | 292° |
| 2026-05-07 13:18 | 55.86747 | 12.49540 | 11538 ft | 336 kts | 292° |
| 2026-05-07 13:18 | 55.87623 | 12.45571 | 11849 ft | 353 kts | 292° |
| 2026-05-07 13:18 | 55.88552 | 12.41371 | 12186 ft | 367 kts | 292° |
| 2026-05-07 13:19 | 55.89522 | 12.37133 | 12789 ft | 372 kts | 295° |
| 2026-05-07 13:19 | 55.90690 | 12.32991 | 13484 ft | 374 kts | 299° |
| 2026-05-07 13:19 | 55.92057 | 12.29073 | 14133 ft | 377 kts | 304° |
| 2026-05-07 13:19 | 55.93565 | 12.25208 | 14765 ft | 380 kts | 305° |
| 2026-05-07 13:20 | 55.95118 | 12.21301 | 15403 ft | 383 kts | 305° |
| 2026-05-07 13:20 | 55.96665 | 12.17405 | 16015 ft | 386 kts | 304° |
| 2026-05-07 13:20 | 55.98221 | 12.13467 | 16602 ft | 389 kts | 304° |
| 2026-05-07 13:20 | 55.99793 | 12.09471 | 17189 ft | 392 kts | 304° |
| 2026-05-07 13:21 | 56.01342 | 12.05527 | 17745 ft | 394 kts | 304° |
| 2026-05-07 13:21 | 56.03096 | 12.01709 | 18287 ft | 398 kts | 313° |
| 2026-05-07 13:21 | 56.05196 | 11.98415 | 18836 ft | 402 kts | 322° |
| 2026-05-07 13:21 | 56.07595 | 11.95668 | 19345 ft | 406 kts | 328° |
| 2026-05-07 13:22 | 56.10059 | 11.93165 | 19834 ft | 410 kts | 329° |
| 2026-05-07 13:22 | 56.12571 | 11.90657 | 20327 ft | 412 kts | 329° |
| 2026-05-07 13:22 | 56.15086 | 11.88134 | 20822 ft | 415 kts | 329° |
| 2026-05-07 13:22 | 56.17636 | 11.85559 | 21314 ft | 417 kts | 329° |
| 2026-05-07 13:23 | 56.20183 | 11.82972 | 21783 ft | 419 kts | 329° |
| 2026-05-07 13:23 | 56.22758 | 11.80345 | 22231 ft | 422 kts | 329° |
| 2026-05-07 13:23 | 56.25354 | 11.77689 | 22676 ft | 425 kts | 329° |
| 2026-05-07 13:23 | 56.27921 | 11.75061 | 23105 ft | 427 kts | 329° |
| 2026-05-07 13:24 | 56.30524 | 11.72322 | 23514 ft | 429 kts | 326° |
| 2026-05-07 13:24 | 56.32964 | 11.69185 | 23940 ft | 429 kts | 320° |
| 2026-05-07 13:24 | 56.35002 | 11.65948 | 24318 ft | 430 kts | 315° |
| 2026-05-07 13:24 | 56.37067 | 11.62015 | 24699 ft | 432 kts | 311° |
| 2026-05-07 13:25 | 56.39069 | 11.57957 | 25058 ft | 434 kts | 311° |
| 2026-05-07 13:25 | 56.41058 | 11.53870 | 25414 ft | 436 kts | 311° |
| 2026-05-07 13:25 | 56.43072 | 11.49723 | 25768 ft | 438 kts | 311° |
| 2026-05-07 13:25 | 56.45105 | 11.45538 | 26089 ft | 441 kts | 311° |
| 2026-05-07 13:26 | 56.47124 | 11.41383 | 26407 ft | 442 kts | 311° |
| 2026-05-07 13:26 | 56.49142 | 11.37228 | 26694 ft | 445 kts | 311° |
| 2026-05-07 13:26 | 56.51208 | 11.32971 | 27003 ft | 446 kts | 310° |
| 2026-05-07 13:26 | 56.53235 | 11.28786 | 27310 ft | 446 kts | 311° |
| 2026-05-07 13:27 | 56.55273 | 11.24573 | 27686 ft | 446 kts | 311° |
| 2026-05-07 13:27 | 56.57312 | 11.20353 | 28077 ft | 444 kts | 311° |
| 2026-05-07 13:27 | 56.59322 | 11.16186 | 28453 ft | 443 kts | 311° |
| 2026-05-07 13:27 | 56.61350 | 11.11972 | 28835 ft | 442 kts | 311° |
| 2026-05-07 13:28 | 56.63390 | 11.07728 | 29217 ft | 440 kts | 311° |
| 2026-05-07 13:28 | 56.65335 | 11.03674 | 29563 ft | 439 kts | 311° |
| 2026-05-07 13:28 | 56.67199 | 10.99781 | 29906 ft | 438 kts | 311° |
| 2026-05-07 13:28 | 56.69215 | 10.95566 | 30266 ft | 437 kts | 311° |
| 2026-05-07 13:29 | 56.71190 | 10.91428 | 30630 ft | 435 kts | 311° |
| 2026-05-07 13:29 | 56.73193 | 10.87224 | 30963 ft | 435 kts | 311° |
| 2026-05-07 13:29 | 56.75153 | 10.83105 | 31273 ft | 434 kts | 311° |
| 2026-05-07 13:29 | 56.77127 | 10.78952 | 31597 ft | 433 kts | 311° |
| 2026-05-07 13:30 | 56.79113 | 10.74761 | 31924 ft | 431 kts | 311° |
| 2026-05-07 13:30 | 56.81063 | 10.70639 | 32219 ft | 430 kts | 311° |
| 2026-05-07 13:30 | 56.83034 | 10.66466 | 32520 ft | 429 kts | 311° |
| 2026-05-07 13:30 | 56.84963 | 10.62372 | 32811 ft | 428 kts | 311° |
| 2026-05-07 13:31 | 56.86911 | 10.58235 | 33102 ft | 427 kts | 311° |
| 2026-05-07 13:31 | 56.88848 | 10.54111 | 33358 ft | 426 kts | 311° |
| 2026-05-07 13:31 | 56.90767 | 10.50021 | 33607 ft | 425 kts | 311° |
| 2026-05-07 13:31 | 56.92707 | 10.45876 | 33872 ft | 424 kts | 311° |
| 2026-05-07 13:32 | 56.94641 | 10.41738 | 34137 ft | 422 kts | 311° |
| 2026-05-07 13:32 | 56.96531 | 10.37682 | 34372 ft | 422 kts | 311° |
| 2026-05-07 13:32 | 56.98457 | 10.33549 | 34568 ft | 422 kts | 310° |
| 2026-05-07 13:32 | 57.00365 | 10.29447 | 34794 ft | 421 kts | 310° |
| 2026-05-07 13:33 | 57.02256 | 10.25373 | 35007 ft | 420 kts | 310° |
| 2026-05-07 13:33 | 57.04157 | 10.21272 | 35165 ft | 419 kts | 309° |
| 2026-05-07 13:33 | 57.06025 | 10.17234 | 35295 ft | 419 kts | 309° |
| 2026-05-07 13:33 | 57.07908 | 10.13155 | 35413 ft | 419 kts | 309° |
| 2026-05-07 13:34 | 57.09793 | 10.09064 | 35534 ft | 420 kts | 309° |
| 2026-05-07 13:34 | 57.13540 | 10.00912 | 35754 ft | 420 kts | 309° |
| 2026-05-07 13:34 | 57.15418 | 9.96818 | 35884 ft | 420 kts | 309° |
| 2026-05-07 13:35 | 57.17304 | 9.92699 | 35999 ft | 420 kts | 309° |
| 2026-05-07 13:35 | 57.19189 | 9.88575 | 36103 ft | 419 kts | 309° |
| 2026-05-07 13:35 | 57.21078 | 9.84435 | 36190 ft | 419 kts | 309° |
| 2026-05-07 13:36 | 57.24834 | 9.76179 | 36313 ft | 421 kts | 309° |
| 2026-05-07 13:36 | 57.28588 | 9.67899 | 36450 ft | 422 kts | 309° |
| 2026-05-07 13:37 | 57.32347 | 9.59578 | 36585 ft | 423 kts | 309° |
| 2026-05-07 13:37 | 57.36151 | 9.51130 | 36726 ft | 425 kts | 309° |
| 2026-05-07 13:38 | 57.39934 | 9.42698 | 36889 ft | 425 kts | 309° |
| 2026-05-07 13:38 | 57.43705 | 9.34259 | 37023 ft | 427 kts | 308° |
| 2026-05-07 13:39 | 57.47532 | 9.25668 | 37151 ft | 428 kts | 308° |
| 2026-05-07 13:39 | 57.51303 | 9.17168 | 37290 ft | 428 kts | 308° |
| 2026-05-07 13:40 | 57.55107 | 9.08562 | 37403 ft | 429 kts | 308° |
| 2026-05-07 13:40 | 57.58904 | 8.99940 | 37541 ft | 430 kts | 308° |
| 2026-05-07 13:41 | 57.62701 | 8.91278 | 37668 ft | 430 kts | 308° |
| 2026-05-07 13:41 | 57.66502 | 8.82583 | 37764 ft | 431 kts | 308° |
| 2026-05-07 13:42 | 57.70176 | 8.73756 | 37868 ft | 431 kts | 306° |
| 2026-05-07 13:42 | 57.73801 | 8.64767 | 37944 ft | 432 kts | 306° |
| 2026-05-07 13:43 | 57.77421 | 8.55751 | 38001 ft | 432 kts | 306° |
| 2026-05-07 13:43 | 57.80886 | 8.47095 | 38076 ft | 432 kts | 306° |
| 2026-05-07 13:44 | 57.84458 | 8.38140 | 38115 ft | 433 kts | 306° |
| 2026-05-07 13:44 | 57.87965 | 8.29313 | 38116 ft | 433 kts | 305° |
| 2026-05-07 13:45 | 57.91529 | 8.20308 | 38111 ft | 432 kts | 305° |
| 2026-05-07 13:45 | 57.95092 | 8.11275 | 38114 ft | 432 kts | 304° |
| 2026-05-07 13:46 | 57.98655 | 8.02209 | 38117 ft | 431 kts | 304° |
| 2026-05-07 13:46 | 58.02197 | 7.93158 | 38114 ft | 431 kts | 304° |
| 2026-05-07 13:47 | 58.05732 | 7.84095 | 38122 ft | 431 kts | 304° |
| 2026-05-07 13:47 | 58.09272 | 7.74982 | 38116 ft | 430 kts | 304° |
| 2026-05-07 13:48 | 58.12675 | 7.66187 | 38111 ft | 430 kts | 304° |
| 2026-05-07 13:48 | 58.16195 | 7.57055 | 38141 ft | 431 kts | 304° |
| 2026-05-07 13:49 | 58.19713 | 7.47895 | 38113 ft | 431 kts | 304° |
| 2026-05-07 13:49 | 58.23236 | 7.38690 | 38106 ft | 430 kts | 304° |
| 2026-05-07 13:50 | 58.26792 | 7.29357 | 38088 ft | 429 kts | 304° |
| 2026-05-07 13:50 | 58.30281 | 7.20168 | 38086 ft | 428 kts | 304° |
| 2026-05-07 13:51 | 58.33763 | 7.10958 | 38081 ft | 427 kts | 303° |
| 2026-05-07 13:51 | 58.37276 | 7.01636 | 38075 ft | 427 kts | 303° |
| 2026-05-07 13:52 | 58.40754 | 6.92365 | 38068 ft | 427 kts | 303° |
| 2026-05-07 13:52 | 58.44190 | 6.83174 | 38074 ft | 427 kts | 303° |
| 2026-05-07 13:53 | 58.47649 | 6.73881 | 38071 ft | 426 kts | 303° |
| 2026-05-07 13:53 | 58.50981 | 6.64897 | 38069 ft | 426 kts | 303° |
| 2026-05-07 13:54 | 58.54393 | 6.55661 | 38078 ft | 426 kts | 303° |
| 2026-05-07 13:54 | 58.57808 | 6.46381 | 38067 ft | 425 kts | 303° |
| 2026-05-07 13:55 | 58.61193 | 6.37145 | 38073 ft | 425 kts | 303° |
| 2026-05-07 13:55 | 58.64614 | 6.27774 | 38062 ft | 425 kts | 302° |
| 2026-05-07 13:56 | 58.67975 | 6.18531 | 38067 ft | 425 kts | 302° |
| 2026-05-07 13:56 | 58.71354 | 6.09203 | 38079 ft | 424 kts | 302° |
| 2026-05-07 13:57 | 58.74611 | 6.00171 | 38092 ft | 424 kts | 302° |
| 2026-05-07 13:57 | 58.77961 | 5.90848 | 38098 ft | 424 kts | 302° |
| 2026-05-07 13:58 | 58.81307 | 5.81492 | 38101 ft | 424 kts | 302° |
| 2026-05-07 13:58 | 58.84528 | 5.72446 | 38098 ft | 424 kts | 302° |
| 2026-05-07 13:59 | 58.87962 | 5.63092 | 38108 ft | 425 kts | 305° |
| 2026-05-07 13:59 | 58.91680 | 5.54197 | 38119 ft | 425 kts | 307° |
| 2026-05-07 14:00 | 58.95408 | 5.45383 | 38116 ft | 426 kts | 307° |
| 2026-05-07 14:00 | 58.99140 | 5.36514 | 38111 ft | 425 kts | 307° |
| 2026-05-07 14:01 | 59.02681 | 5.28052 | 38111 ft | 425 kts | 306° |
| 2026-05-07 14:01 | 59.06403 | 5.19126 | 38118 ft | 425 kts | 306° |
| 2026-05-07 14:02 | 59.10138 | 5.10132 | 38112 ft | 425 kts | 306° |
| 2026-05-07 14:02 | 59.13861 | 5.01133 | 38122 ft | 424 kts | 306° |
| 2026-05-07 14:03 | 59.17555 | 4.92167 | 38123 ft | 424 kts | 306° |
| 2026-05-07 14:03 | 59.21251 | 4.83165 | 38122 ft | 424 kts | 305° |
| 2026-05-07 14:04 | 59.24948 | 4.74123 | 38115 ft | 424 kts | 305° |
| 2026-05-07 14:04 | 59.28472 | 4.65472 | 38114 ft | 425 kts | 305° |
| 2026-05-07 14:05 | 59.32216 | 4.56241 | 38109 ft | 424 kts | 305° |
| 2026-05-07 14:05 | 59.35882 | 4.47173 | 38117 ft | 424 kts | 305° |
| 2026-05-07 14:06 | 59.39542 | 4.38082 | 38125 ft | 424 kts | 305° |
| 2026-05-07 14:06 | 59.43216 | 4.28921 | 38114 ft | 423 kts | 304° |
| 2026-05-07 14:07 | 59.46977 | 4.19505 | 38115 ft | 424 kts | 304° |
| 2026-05-07 14:07 | 59.50715 | 4.10113 | 38120 ft | 424 kts | 304° |
| 2026-05-07 14:08 | 59.54406 | 4.00796 | 38109 ft | 423 kts | 304° |
| 2026-05-07 14:08 | 59.58075 | 3.91500 | 38110 ft | 423 kts | 304° |
| 2026-05-07 14:09 | 59.61789 | 3.82054 | 38117 ft | 423 kts | 304° |
| 2026-05-07 14:09 | 59.65482 | 3.72617 | 38109 ft | 422 kts | 304° |
| 2026-05-07 14:10 | 59.69132 | 3.63262 | 38109 ft | 423 kts | 304° |
| 2026-05-07 14:10 | 59.72860 | 3.53661 | 38110 ft | 422 kts | 304° |
| 2026-05-07 14:11 | 59.76528 | 3.44180 | 38096 ft | 423 kts | 303° |
| 2026-05-07 14:11 | 59.80144 | 3.34794 | 38099 ft | 423 kts | 303° |
| 2026-05-07 14:12 | 59.83767 | 3.25352 | 38099 ft | 422 kts | 303° |
| 2026-05-07 14:12 | 59.87432 | 3.15759 | 38092 ft | 423 kts | 303° |
| 2026-05-07 14:13 | 59.91090 | 3.06149 | 38091 ft | 423 kts | 302° |
| 2026-05-07 14:13 | 59.94649 | 2.96761 | 38087 ft | 423 kts | 302° |
| 2026-05-07 14:14 | 59.98249 | 2.87217 | 38087 ft | 423 kts | 302° |
| 2026-05-07 14:14 | 60.01715 | 2.78003 | 38079 ft | 424 kts | 302° |
| 2026-05-07 14:15 | 60.05319 | 2.68377 | 38070 ft | 424 kts | 302° |
| 2026-05-07 14:15 | 60.08874 | 2.58846 | 38059 ft | 424 kts | 302° |
| 2026-05-07 14:16 | 60.12458 | 2.49195 | 38074 ft | 424 kts | 302° |
| 2026-05-07 14:16 | 60.16089 | 2.39374 | 38066 ft | 425 kts | 302° |
| 2026-05-07 14:17 | 60.19707 | 2.29551 | 38071 ft | 426 kts | 301° |
| 2026-05-07 14:17 | 60.23217 | 2.19982 | 38066 ft | 425 kts | 301° |
| 2026-05-07 14:18 | 60.26737 | 2.10348 | 38068 ft | 426 kts | 301° |
| 2026-05-07 14:18 | 60.30165 | 2.00920 | 38051 ft | 426 kts | 301° |
| 2026-05-07 14:19 | 60.33732 | 1.91073 | 38070 ft | 426 kts | 301° |
| 2026-05-07 14:19 | 60.37306 | 1.81167 | 38055 ft | 427 kts | 301° |
| 2026-05-07 14:20 | 60.40906 | 1.71145 | 38054 ft | 427 kts | 301° |
| 2026-05-07 14:20 | 60.44508 | 1.61071 | 38048 ft | 428 kts | 301° |
| 2026-05-07 14:21 | 60.48038 | 1.51159 | 38037 ft | 428 kts | 301° |
| 2026-05-07 14:21 | 60.51562 | 1.41217 | 38044 ft | 429 kts | 301° |
| 2026-05-07 14:22 | 60.55629 | 1.29699 | 38115 ft | 429 kts | 300° |
| 2026-05-07 14:22 | 60.56791 | 1.26398 | 37937 ft | 428 kts | 300° |
| 2026-05-07 14:22 | 60.58580 | 1.21304 | 37994 ft | 428 kts | 300° |
| 2026-05-07 14:23 | 60.62056 | 1.11375 | 38094 ft | 430 kts | 300° |
| 2026-05-07 14:23 | 60.65553 | 1.01337 | 38032 ft | 428 kts | 300° |
| 2026-05-07 14:24 | 60.69044 | 0.91275 | 38011 ft | 429 kts | 300° |
| 2026-05-07 14:24 | 60.72374 | 0.81639 | 38004 ft | 429 kts | 300° |
| 2026-05-07 14:25 | 60.75807 | 0.71659 | 37990 ft | 429 kts | 300° |
| 2026-05-07 14:25 | 60.79137 | 0.61940 | 37981 ft | 430 kts | 300° |
| 2026-05-07 14:26 | 60.82631 | 0.51695 | 37991 ft | 431 kts | 300° |
| 2026-05-07 14:26 | 60.86148 | 0.41336 | 37987 ft | 432 kts | 300° |
| 2026-05-07 14:27 | 60.89592 | 0.31139 | 37991 ft | 433 kts | 299° |
| 2026-05-07 14:27 | 60.93073 | 0.20786 | 37980 ft | 433 kts | 299° |
| 2026-05-07 14:28 | 60.96545 | 0.10304 | 37985 ft | 432 kts | 297° |
| 2026-05-07 14:28 | 60.99556 | -0.00626 | 37972 ft | 428 kts | 291° |
| 2026-05-07 14:29 | 61.01919 | -0.11956 | 37982 ft | 425 kts | 285° |
| 2026-05-07 14:29 | 61.03897 | -0.23971 | 37979 ft | 426 kts | 284° |
| 2026-05-07 14:30 | 61.05819 | -0.35963 | 37980 ft | 426 kts | 284° |
| 2026-05-07 14:30 | 61.07705 | -0.47800 | 37966 ft | 426 kts | 284° |
| 2026-05-07 14:31 | 61.09585 | -0.59670 | 37954 ft | 429 kts | 284° |
| 2026-05-07 14:31 | 61.11480 | -0.71707 | 37953 ft | 429 kts | 284° |
| 2026-05-07 14:32 | 61.13367 | -0.83777 | 37954 ft | 430 kts | 284° |
| 2026-05-07 14:32 | 61.15241 | -0.95842 | 37957 ft | 430 kts | 284° |
| 2026-05-07 14:33 | 61.17114 | -1.07990 | 37931 ft | 431 kts | 284° |
| 2026-05-07 14:33 | 61.18967 | -1.20093 | 37932 ft | 431 kts | 284° |
| 2026-05-07 14:34 | 61.20808 | -1.32200 | 37918 ft | 431 kts | 284° |
| 2026-05-07 14:34 | 61.22652 | -1.44407 | 37922 ft | 432 kts | 284° |
| 2026-05-07 14:35 | 61.24484 | -1.56635 | 37909 ft | 433 kts | 284° |
| 2026-05-07 14:35 | 61.26300 | -1.68826 | 37918 ft | 434 kts | 283° |
| 2026-05-07 14:36 | 61.28110 | -1.81081 | 37892 ft | 433 kts | 283° |
| 2026-05-07 14:36 | 61.29920 | -1.93428 | 37887 ft | 433 kts | 283° |
| 2026-05-07 14:37 | 61.31711 | -2.05721 | 37884 ft | 434 kts | 283° |
| 2026-05-07 14:37 | 61.34376 | -2.24188 | 37889 ft | 435 kts | 283° |
| 2026-05-07 14:38 | 61.36134 | -2.36492 | 37873 ft | 435 kts | 283° |
| 2026-05-07 14:38 | 61.37878 | -2.48778 | 37864 ft | 435 kts | 283° |
| 2026-05-07 14:39 | 61.39646 | -2.61337 | 37869 ft | 436 kts | 283° |
| 2026-05-07 14:39 | 61.41394 | -2.73850 | 37854 ft | 436 kts | 283° |
| 2026-05-07 14:40 | 61.43117 | -2.86267 | 37850 ft | 435 kts | 282° |
| 2026-05-07 14:40 | 61.44814 | -2.98597 | 37852 ft | 435 kts | 283° |
| 2026-05-07 14:41 | 61.46542 | -3.11246 | 37847 ft | 434 kts | 283° |
| 2026-05-07 14:41 | 61.48255 | -3.23901 | 37833 ft | 436 kts | 282° |
| 2026-05-07 14:42 | 61.49923 | -3.36315 | 37823 ft | 437 kts | 283° |
| 2026-05-07 14:42 | 61.51584 | -3.48768 | 37836 ft | 438 kts | 282° |
| 2026-05-07 14:43 | 61.53253 | -3.61382 | 37819 ft | 439 kts | 282° |
| 2026-05-07 14:43 | 61.54843 | -3.73500 | 37812 ft | 439 kts | 282° |
| 2026-05-07 14:44 | 61.56478 | -3.86057 | 37796 ft | 439 kts | 282° |
| 2026-05-07 14:44 | 61.58017 | -3.97961 | 37253 ft | 444 kts | 281° |
| 2026-05-07 14:45 | 61.58835 | -4.04311 | 36638 ft | 444 kts | 281° |
| 2026-05-07 14:45 | 61.59644 | -4.10621 | 36071 ft | 441 kts | 281° |
| 2026-05-07 14:45 | 61.60449 | -4.16915 | 35569 ft | 438 kts | 280° |
| 2026-05-07 14:45 | 61.61237 | -4.23113 | 35051 ft | 435 kts | 280° |
| 2026-05-07 14:46 | 61.62023 | -4.29324 | 34500 ft | 432 kts | 279° |
| 2026-05-07 14:46 | 61.62760 | -4.35178 | 33987 ft | 429 kts | 279° |
| 2026-05-07 14:46 | 61.63532 | -4.41338 | 33409 ft | 426 kts | 279° |
| 2026-05-07 14:46 | 61.64280 | -4.47333 | 32875 ft | 423 kts | 279° |
| 2026-05-07 14:47 | 61.65006 | -4.53173 | 32336 ft | 420 kts | 278° |
| 2026-05-07 14:47 | 61.65720 | -4.58949 | 31685 ft | 420 kts | 278° |
| 2026-05-07 14:47 | 61.66436 | -4.64759 | 30900 ft | 421 kts | 278° |
| 2026-05-07 14:47 | 61.67196 | -4.70978 | 29928 ft | 423 kts | 277° |
| 2026-05-07 14:48 | 61.67946 | -4.77149 | 28891 ft | 427 kts | 278° |
| 2026-05-07 14:48 | 61.68682 | -4.83233 | 27798 ft | 432 kts | 278° |
| 2026-05-07 14:48 | 61.69469 | -4.89738 | 26604 ft | 437 kts | 278° |
| 2026-05-07 14:48 | 61.70233 | -4.96068 | 25509 ft | 440 kts | 279° |
| 2026-05-07 14:49 | 61.71011 | -5.02535 | 24661 ft | 437 kts | 278° |
| 2026-05-07 14:49 | 61.71780 | -5.08934 | 23966 ft | 431 kts | 278° |
| 2026-05-07 14:49 | 61.72504 | -5.14988 | 23309 ft | 427 kts | 278° |
| 2026-05-07 14:49 | 61.73257 | -5.21344 | 22603 ft | 423 kts | 278° |
| 2026-05-07 14:50 | 61.73975 | -5.27426 | 21943 ft | 421 kts | 278° |
| 2026-05-07 14:50 | 61.74699 | -5.33584 | 21268 ft | 418 kts | 278° |
| 2026-05-07 14:50 | 61.75424 | -5.39776 | 20630 ft | 416 kts | 279° |
| 2026-05-07 14:50 | 61.76110 | -5.45660 | 19987 ft | 414 kts | 278° |
| 2026-05-07 14:51 | 61.76832 | -5.51859 | 19342 ft | 411 kts | 278° |
| 2026-05-07 14:51 | 61.77512 | -5.57738 | 18726 ft | 409 kts | 279° |
| 2026-05-07 14:51 | 61.78209 | -5.63800 | 18081 ft | 408 kts | 279° |
| 2026-05-07 14:51 | 61.78901 | -5.69851 | 17433 ft | 406 kts | 279° |
| 2026-05-07 14:52 | 61.79559 | -5.75595 | 16840 ft | 404 kts | 278° |
| 2026-05-07 14:52 | 61.80244 | -5.81606 | 16222 ft | 402 kts | 278° |
| 2026-05-07 14:52 | 61.80915 | -5.87552 | 15616 ft | 400 kts | 279° |
| 2026-05-07 14:52 | 61.81554 | -5.93230 | 15022 ft | 398 kts | 279° |
| 2026-05-07 14:53 | 61.82220 | -5.99156 | 14410 ft | 396 kts | 279° |
| 2026-05-07 14:53 | 61.82867 | -6.04945 | 13812 ft | 394 kts | 279° |
| 2026-05-07 14:53 | 61.83486 | -6.10478 | 13252 ft | 392 kts | 279° |
| 2026-05-07 14:53 | 61.84114 | -6.16127 | 12665 ft | 390 kts | 278° |
| 2026-05-07 14:54 | 61.84734 | -6.21740 | 12094 ft | 387 kts | 278° |
| 2026-05-07 14:54 | 61.85359 | -6.27433 | 11491 ft | 385 kts | 278° |
| 2026-05-07 14:54 | 61.85990 | -6.33194 | 10902 ft | 382 kts | 278° |
| 2026-05-07 14:54 | 61.86585 | -6.38652 | 10624 ft | 370 kts | 278° |
| 2026-05-07 14:55 | 61.87171 | -6.44043 | 10430 ft | 356 kts | 278° |
| 2026-05-07 14:55 | 61.87698 | -6.48914 | 10248 ft | 343 kts | 278° |
| 2026-05-07 14:55 | 61.88224 | -6.53789 | 10076 ft | 331 kts | 278° |
| 2026-05-07 14:55 | 61.88739 | -6.58190 | 9922 ft | 322 kts | 282° |
| 2026-05-07 14:56 | 61.89426 | -6.62819 | 9766 ft | 311 kts | 284° |
| 2026-05-07 14:56 | 61.90091 | -6.67091 | 9559 ft | 303 kts | 283° |
| 2026-05-07 14:56 | 61.90704 | -6.71036 | 9211 ft | 301 kts | 283° |
| 2026-05-07 14:56 | 61.91324 | -6.75045 | 8875 ft | 298 kts | 283° |
| 2026-05-07 14:57 | 61.91970 | -6.79238 | 8528 ft | 294 kts | 283° |
| 2026-05-07 14:57 | 61.92593 | -6.83300 | 8204 ft | 291 kts | 283° |
| 2026-05-07 14:57 | 61.93199 | -6.87273 | 7888 ft | 288 kts | 284° |
| 2026-05-07 14:57 | 61.93809 | -6.91299 | 7564 ft | 285 kts | 285° |
| 2026-05-07 14:58 | 61.94420 | -6.95325 | 7237 ft | 282 kts | 285° |
| 2026-05-07 14:58 | 61.95024 | -6.99300 | 6911 ft | 279 kts | 285° |
| 2026-05-07 14:58 | 61.95606 | -7.03138 | 6599 ft | 277 kts | 285° |
| 2026-05-07 14:58 | 61.96201 | -7.07064 | 6284 ft | 275 kts | 285° |
| 2026-05-07 14:59 | 61.96793 | -7.10999 | 5964 ft | 273 kts | 285° |
| 2026-05-07 14:59 | 61.97368 | -7.14827 | 5652 ft | 272 kts | 285° |
| 2026-05-07 14:59 | 61.97929 | -7.18572 | 5354 ft | 270 kts | 285° |
| 2026-05-07 14:59 | 61.98495 | -7.22358 | 5043 ft | 269 kts | 285° |
| 2026-05-07 15:00 | 61.99085 | -7.26312 | 4728 ft | 268 kts | 285° |
| 2026-05-07 15:00 | 61.99661 | -7.30186 | 4416 ft | 267 kts | 285° |
| 2026-05-07 15:00 | 62.00224 | -7.33973 | 4116 ft | 266 kts | 285° |
| 2026-05-07 15:00 | 62.00793 | -7.37815 | 3958 ft | 275 kts | 285° |
| 2026-05-07 15:01 | 62.01397 | -7.41899 | 3951 ft | 274 kts | 285° |
| 2026-05-07 15:01 | 62.01959 | -7.45683 | 3942 ft | 259 kts | 285° |
| 2026-05-07 15:01 | 62.02486 | -7.49241 | 3936 ft | 245 kts | 285° |
| 2026-05-07 15:01 | 62.03122 | -7.52502 | 3923 ft | 232 kts | 303° |
| 2026-05-07 15:02 | 62.04221 | -7.54983 | 4008 ft | 221 kts | 326° |
| 2026-05-07 15:02 | 62.05564 | -7.56303 | 3975 ft | 201 kts | 352° |
| 2026-05-07 15:02 | 62.06964 | -7.56282 | 3665 ft | 191 kts | 19° |
| 2026-05-07 15:02 | 62.08149 | -7.55111 | 3239 ft | 183 kts | 43° |
| 2026-05-07 15:03 | 62.08994 | -7.53091 | 2848 ft | 169 kts | 67° |
| 2026-05-07 15:03 | 62.09388 | -7.50868 | 2587 ft | 151 kts | 85° |
| 2026-05-07 15:03 | 62.09428 | -7.48788 | 2346 ft | 130 kts | 100° |
| 2026-05-07 15:03 | 62.09241 | -7.46957 | 2113 ft | 123 kts | 108° |
| 2026-05-07 15:04 | 62.09003 | -7.45149 | 1902 ft | 122 kts | 108° |
| 2026-05-07 15:04 | 62.08772 | -7.43390 | 1757 ft | 122 kts | 107° |
| 2026-05-07 15:04 | 62.08544 | -7.41628 | 1622 ft | 122 kts | 107° |
| 2026-05-07 15:04 | 62.08318 | -7.39853 | 1447 ft | 121 kts | 106° |
| 2026-05-07 15:05 | 62.08098 | -7.38098 | 1261 ft | 121 kts | 106° |
| 2026-05-07 15:05 | 62.07878 | -7.36366 | 1084 ft | 121 kts | 105° |
| 2026-05-07 15:05 | 62.07655 | -7.34583 | 882 ft | 120 kts | 105° |
| 2026-05-07 15:05 | 62.07441 | -7.32834 | 708 ft | 119 kts | 104° |
| 2026-05-07 15:06 | 62.07232 | -7.31107 | 512 ft | 120 kts | 117° |
| 2026-05-07 15:06 | 62.06781 | -7.29491 | 367 ft | 122 kts | 122° |
| 2026-05-07 15:06 | 62.06377 | -7.28017 | 591 ft | 117 kts | 117° |
| 2026-05-07 15:06 | 62.05904 | -7.26342 | 614 ft | 148 kts | 117° |
| 2026-05-07 15:07 | 62.05412 | -7.24272 | 1372 ft | 158 kts | 116° |
| 2026-05-07 15:07 | 62.04913 | -7.22136 | 1788 ft | 168 kts | 117° |
| 2026-05-07 15:07 | 62.04323 | -7.19684 | 2111 ft | 188 kts | 118° |
| 2026-05-07 15:07 | 62.03701 | -7.17143 | 2622 ft | 199 kts | 118° |
| 2026-05-07 15:08 | 62.03018 | -7.14454 | 3209 ft | 208 kts | 127° |
| 2026-05-07 15:08 | 62.01998 | -7.12258 | 3742 ft | 209 kts | 144° |
| 2026-05-07 15:08 | 62.00661 | -7.10788 | 3948 ft | 212 kts | 161° |
| 2026-05-07 15:08 | 61.99205 | -7.10232 | 3948 ft | 214 kts | 176° |
| 2026-05-07 15:09 | 61.97689 | -7.10628 | 3947 ft | 217 kts | 193° |
| 2026-05-07 15:09 | 61.96302 | -7.11949 | 3946 ft | 222 kts | 209° |
| 2026-05-07 15:09 | 61.95126 | -7.14160 | 3939 ft | 228 kts | 226° |
| 2026-05-07 15:09 | 61.94305 | -7.17135 | 3936 ft | 234 kts | 245° |
| 2026-05-07 15:10 | 61.93965 | -7.20692 | 3932 ft | 241 kts | 266° |
| 2026-05-07 15:10 | 61.94189 | -7.24219 | 3929 ft | 245 kts | 286° |
| 2026-05-07 15:10 | 61.94980 | -7.27518 | 3933 ft | 248 kts | 305° |
| 2026-05-07 15:10 | 61.96027 | -7.30442 | 3936 ft | 248 kts | 307° |
| 2026-05-07 15:11 | 61.97081 | -7.33410 | 3930 ft | 248 kts | 305° |
| 2026-05-07 15:11 | 61.98084 | -7.36401 | 3923 ft | 242 kts | 304° |
| 2026-05-07 15:11 | 61.99043 | -7.39295 | 3917 ft | 227 kts | 304° |
| 2026-05-07 15:11 | 61.99929 | -7.41961 | 3991 ft | 209 kts | 304° |
| 2026-05-07 15:12 | 62.00773 | -7.44494 | 3993 ft | 207 kts | 304° |
| 2026-05-07 15:12 | 62.01612 | -7.47015 | 3954 ft | 207 kts | 304° |
| 2026-05-07 15:12 | 62.02425 | -7.49502 | 3940 ft | 207 kts | 301° |
| 2026-05-07 15:12 | 62.03154 | -7.52202 | 3933 ft | 191 kts | 302° |
| 2026-05-07 15:13 | 62.04025 | -7.54390 | 3810 ft | 192 kts | 319° |
| 2026-05-07 15:13 | 62.05159 | -7.55922 | 3395 ft | 189 kts | 342° |
| 2026-05-07 15:13 | 62.06458 | -7.56354 | 2976 ft | 182 kts | 9° |
| 2026-05-07 15:13 | 62.07659 | -7.55668 | 2651 ft | 166 kts | 34° |
| 2026-05-07 15:14 | 62.08548 | -7.54260 | 2385 ft | 154 kts | 55° |
| 2026-05-07 15:14 | 62.09123 | -7.52426 | 2256 ft | 148 kts | 72° |
| 2026-05-07 15:14 | 62.09398 | -7.50324 | 2124 ft | 143 kts | 88° |
| 2026-05-07 15:14 | 62.09365 | -7.48243 | 1993 ft | 139 kts | 102° |
| 2026-05-07 15:15 | 62.09129 | -7.46174 | 1957 ft | 139 kts | 106° |
| 2026-05-07 15:15 | 62.08876 | -7.44178 | 1939 ft | 140 kts | 107° |
| 2026-05-07 15:15 | 62.08620 | -7.42182 | 1715 ft | 136 kts | 106° |
| 2026-05-07 15:15 | 62.08374 | -7.40253 | 1465 ft | 123 kts | 105° |
| 2026-05-07 15:16 | 62.08150 | -7.38481 | 1288 ft | 122 kts | 105° |
| 2026-05-07 15:16 | 62.07930 | -7.36727 | 1108 ft | 121 kts | 105° |
| 2026-05-07 15:16 | 62.07710 | -7.34984 | 921 ft | 121 kts | 105° |
| 2026-05-07 15:16 | 62.07489 | -7.33230 | 729 ft | 120 kts | 104° |
| 2026-05-07 15:17 | 62.07266 | -7.31470 | 531 ft | 120 kts | 107° |
| 2026-05-07 15:17 | 62.06872 | -7.29810 | 376 ft | 122 kts | 116° |
| 2026-05-07 15:17 | 62.06485 | -7.28241 | 377 ft | 119 kts | 114° |
| 2026-05-07 15:17 | 62.06104 | -7.26629 | 986 ft | 123 kts | 115° |
| 2026-05-07 15:18 | 62.05672 | -7.24908 | 1600 ft | 138 kts | 117° |
| 2026-05-07 15:18 | 62.05196 | -7.23011 | 2263 ft | 152 kts | 118° |
| 2026-05-07 15:18 | 62.04691 | -7.20996 | 2992 ft | 153 kts | 120° |
| 2026-05-07 15:18 | 62.04157 | -7.18872 | 3388 ft | 172 kts | 120° |
| 2026-05-07 15:19 | 62.03552 | -7.16477 | 3792 ft | 193 kts | 119° |
| 2026-05-07 15:19 | 62.02808 | -7.13891 | 3874 ft | 207 kts | 132° |
| 2026-05-07 15:19 | 62.01697 | -7.11871 | 3911 ft | 210 kts | 148° |
| 2026-05-07 15:19 | 62.00346 | -7.10623 | 3926 ft | 213 kts | 164° |
| 2026-05-07 15:20 | 61.98448 | -7.10324 | 3931 ft | 215 kts | 184° |
| 2026-05-07 15:20 | 61.97480 | -7.10834 | 3921 ft | 219 kts | 202° |
| 2026-05-07 15:20 | 61.96315 | -7.12967 | 3928 ft | 230 kts | 234° |
| 2026-05-07 15:20 | 61.95841 | -7.16336 | 3931 ft | 241 kts | 268° |
| 2026-05-07 15:21 | 61.96293 | -7.19753 | 3943 ft | 246 kts | 296° |
| 2026-05-07 15:21 | 61.97141 | -7.22989 | 3946 ft | 247 kts | 298° |
| 2026-05-07 15:21 | 61.98025 | -7.26298 | 3949 ft | 248 kts | 297° |
| 2026-05-07 15:21 | 61.98902 | -7.29667 | 3950 ft | 248 kts | 297° |
| 2026-05-07 15:22 | 61.99755 | -7.33020 | 3954 ft | 249 kts | 297° |
| 2026-05-07 15:22 | 62.00519 | -7.36339 | 3955 ft | 248 kts | 291° |
| 2026-05-07 15:22 | 62.01133 | -7.39869 | 3950 ft | 241 kts | 286° |
| 2026-05-07 15:22 | 62.01629 | -7.43213 | 3935 ft | 226 kts | 284° |
| 2026-05-07 15:23 | 62.02075 | -7.46310 | 3943 ft | 210 kts | 284° |
| 2026-05-07 15:23 | 62.02499 | -7.49247 | 4033 ft | 207 kts | 284° |
| 2026-05-07 15:23 | 62.03009 | -7.52025 | 3967 ft | 194 kts | 298° |
| 2026-05-07 15:23 | 62.03828 | -7.54239 | 3944 ft | 189 kts | 318° |
| 2026-05-07 15:24 | 62.04917 | -7.55810 | 3944 ft | 188 kts | 338° |
| 2026-05-07 15:24 | 62.06229 | -7.56421 | 3797 ft | 185 kts | 3° |
| 2026-05-07 15:24 | 62.07476 | -7.55909 | 3227 ft | 186 kts | 30° |
| 2026-05-07 15:24 | 62.08518 | -7.54381 | 2858 ft | 172 kts | 53° |
| 2026-05-07 15:25 | 62.09164 | -7.52347 | 2557 ft | 156 kts | 72° |
| 2026-05-07 15:25 | 62.09427 | -7.50164 | 2277 ft | 143 kts | 89° |
| 2026-05-07 15:25 | 62.09357 | -7.48011 | 2109 ft | 137 kts | 104° |
| 2026-05-07 15:25 | 62.09130 | -7.46119 | 1941 ft | 123 kts | 107° |
| 2026-05-07 15:26 | 62.08896 | -7.44308 | 1936 ft | 123 kts | 107° |
| 2026-05-07 15:26 | 62.08655 | -7.42442 | 1714 ft | 122 kts | 107° |
| 2026-05-07 15:26 | 62.08434 | -7.40709 | 1527 ft | 122 kts | 106° |
| 2026-05-07 15:26 | 62.08205 | -7.38909 | 1336 ft | 121 kts | 106° |
| 2026-05-07 15:27 | 62.07979 | -7.37106 | 1140 ft | 121 kts | 106° |
| 2026-05-07 15:27 | 62.07755 | -7.35342 | 947 ft | 120 kts | 105° |
| 2026-05-07 15:27 | 62.07530 | -7.33568 | 758 ft | 120 kts | 104° |
| 2026-05-07 15:27 | 62.07314 | -7.31837 | 568 ft | 120 kts | 106° |
| 2026-05-07 15:28 | 62.06968 | -7.30215 | 380 ft | 119 kts | 115° |
| 2026-05-07 15:28 | 62.06592 | -7.28634 | 284 ft | 111 kts | 117° |
| 2026-05-07 15:28 | 62.06297 | -7.27454 | 289 ft | 71 kts | 118° |
| 2026-05-07 15:28 | 62.06146 | -7.26845 | 272 ft | 32 kts | 117° |
| 2026-05-07 15:29 | 62.06057 | -7.26474 | 259 ft | 26 kts | 116° |
| 2026-05-07 15:29 | 62.05978 | -7.26155 | 250 ft | 10 kts | 118° |
| 2026-05-07 15:29 | 62.05950 | -7.25990 | 248 ft | 7 kts | 133° |
| 2026-05-07 15:29 | 62.05948 | -7.26044 | 248 ft | 6 kts | 292° |
| 2026-05-07 15:30 | 62.05978 | -7.26182 | 251 ft | 14 kts | 297° |
| 2026-05-07 15:30 | 62.06040 | -7.26434 | 257 ft | 22 kts | 298° |
| 2026-05-07 15:30 | 62.06111 | -7.26718 | 267 ft | 20 kts | 298° |
| 2026-05-07 15:30 | 62.06174 | -7.26977 | 275 ft | 18 kts | 298° |
| 2026-05-07 15:31 | 62.06235 | -7.27222 | 283 ft | 18 kts | 297° |
| 2026-05-07 15:31 | 62.06295 | -7.27466 | 289 ft | 18 kts | 298° |
| 2026-05-07 15:31 | 62.06354 | -7.27703 | 294 ft | 19 kts | 298° |
| 2026-05-07 15:31 | 62.06418 | -7.27970 | 294 ft | 21 kts | 297° |
| 2026-05-07 15:32 | 62.06487 | -7.28143 | 291 ft | 13 kts | 359° |
| 2026-05-07 15:32 | 62.06569 | -7.28096 | 289 ft | 8 kts | 9° |
| 2026-05-07 15:32 | 62.06628 | -7.28083 | 289 ft | 8 kts | 28° |
| 2026-05-07 15:32 | 62.06654 | -7.27994 | 289 ft | 6 kts | 46° |
| 2026-05-07 15:33 | 62.06681 | -7.27956 | 289 ft | 2 kts | 30° |
| 2026-05-07 15:33 | 62.06686 | -7.27950 | 289 ft | 0 kts | 30° |